sensor_id;sensor_type;location;lat;lon;timestamp;P1;durP1;ratioP1;P2;durP2;ratioP2
38499;SDS011;24269;51.894;4.622;2022-10-19T00:01:29;16.25;;;9.15;;
38499;SDS011;24269;51.894;4.622;2022-10-19T00:03:55;19.27;;;9.80;;
38499;SDS011;24269;51.894;4.622;2022-10-19T00:06:25;14.57;;;9.30;;
38499;SDS011;24269;51.894;4.622;2022-10-19T00:11:21;12.13;;;8.98;;
38499;SDS011;24269;51.894;4.622;2022-10-19T00:13:47;15.45;;;9.02;;
38499;SDS011;24269;51.894;4.622;2022-10-19T00:16:14;15.88;;;9.60;;
38499;SDS011;24269;51.894;4.622;2022-10-19T00:18:41;16.48;;;9.55;;
38499;SDS011;24269;51.894;4.622;2022-10-19T00:21:08;17.25;;;9.60;;
38499;SDS011;24269;51.894;4.622;2022-10-19T00:23:36;17.63;;;9.95;;
38499;SDS011;24269;51.894;4.622;2022-10-19T00:26:02;15.95;;;10.10;;
38499;SDS011;24269;51.894;4.622;2022-10-19T00:28:27;13.27;;;9.98;;
38499;SDS011;24269;51.894;4.622;2022-10-19T00:30:53;16.08;;;10.48;;
38499;SDS011;24269;51.894;4.622;2022-10-19T00:33:19;17.65;;;10.88;;
38499;SDS011;24269;51.894;4.622;2022-10-19T00:35:50;18.92;;;10.50;;
38499;SDS011;24269;51.894;4.622;2022-10-19T00:38:19;21.13;;;11.00;;
38499;SDS011;24269;51.894;4.622;2022-10-19T00:40:46;23.27;;;11.73;;
38499;SDS011;24269;51.894;4.622;2022-10-19T00:43:23;26.38;;;11.82;;
38499;SDS011;24269;51.894;4.622;2022-10-19T00:45:51;24.67;;;12.13;;
38499;SDS011;24269;51.894;4.622;2022-10-19T00:48:30;20.52;;;11.27;;
38499;SDS011;24269;51.894;4.622;2022-10-19T00:50:57;18.05;;;11.73;;
38499;SDS011;24269;51.894;4.622;2022-10-19T00:53:25;17.52;;;10.35;;
38499;SDS011;24269;51.894;4.622;2022-10-19T00:55:53;15.98;;;9.82;;
38499;SDS011;24269;51.894;4.622;2022-10-19T00:58:19;28.17;;;10.18;;
38499;SDS011;24269;51.894;4.622;2022-10-19T01:00:45;20.00;;;10.02;;
38499;SDS011;24269;51.894;4.622;2022-10-19T01:03:11;16.75;;;9.57;;
38499;SDS011;24269;51.894;4.622;2022-10-19T01:05:38;18.30;;;9.48;;
38499;SDS011;24269;51.894;4.622;2022-10-19T01:08:05;25.15;;;8.15;;
38499;SDS011;24269;51.894;4.622;2022-10-19T01:10:51;13.48;;;8.13;;
38499;SDS011;24269;51.894;4.622;2022-10-19T01:13:27;17.73;;;8.15;;
38499;SDS011;24269;51.894;4.622;2022-10-19T01:27:23;11.13;;;7.97;;
38499;SDS011;24269;51.894;4.622;2022-10-19T01:30:02;11.50;;;8.43;;
38499;SDS011;24269;51.894;4.622;2022-10-19T01:32:41;13.98;;;8.82;;
38499;SDS011;24269;51.894;4.622;2022-10-19T01:35:21;11.02;;;8.40;;
38499;SDS011;24269;51.894;4.622;2022-10-19T01:38:20;11.50;;;8.35;;
38499;SDS011;24269;51.894;4.622;2022-10-19T01:43:40;11.90;;;8.80;;
38499;SDS011;24269;51.894;4.622;2022-10-19T01:49:09;11.43;;;8.55;;
38499;SDS011;24269;51.894;4.622;2022-10-19T01:52:03;15.43;;;8.73;;
38499;SDS011;24269;51.894;4.622;2022-10-19T01:54:29;13.35;;;8.40;;
38499;SDS011;24269;51.894;4.622;2022-10-19T01:57:01;11.45;;;7.90;;
38499;SDS011;24269;51.894;4.622;2022-10-19T01:59:31;11.13;;;8.18;;
38499;SDS011;24269;51.894;4.622;2022-10-19T02:01:58;9.23;;;7.80;;
38499;SDS011;24269;51.894;4.622;2022-10-19T02:04:26;13.60;;;7.78;;
38499;SDS011;24269;51.894;4.622;2022-10-19T02:06:52;11.98;;;7.57;;
38499;SDS011;24269;51.894;4.622;2022-10-19T02:09:19;12.68;;;7.70;;
38499;SDS011;24269;51.894;4.622;2022-10-19T02:11:45;14.73;;;8.02;;
38499;SDS011;24269;51.894;4.622;2022-10-19T02:14:14;11.57;;;7.70;;
38499;SDS011;24269;51.894;4.622;2022-10-19T02:16:47;10.27;;;7.78;;
38499;SDS011;24269;51.894;4.622;2022-10-19T02:19:19;20.92;;;8.20;;
38499;SDS011;24269;51.894;4.622;2022-10-19T02:21:46;17.23;;;7.80;;
38499;SDS011;24269;51.894;4.622;2022-10-19T02:24:11;12.32;;;7.90;;
38499;SDS011;24269;51.894;4.622;2022-10-19T02:26:37;9.95;;;7.53;;
38499;SDS011;24269;51.894;4.622;2022-10-19T02:29:04;13.00;;;7.50;;
38499;SDS011;24269;51.894;4.622;2022-10-19T02:31:30;11.32;;;7.18;;
38499;SDS011;24269;51.894;4.622;2022-10-19T02:33:56;10.52;;;7.40;;
38499;SDS011;24269;51.894;4.622;2022-10-19T02:36:22;9.10;;;7.20;;
38499;SDS011;24269;51.894;4.622;2022-10-19T02:38:47;8.70;;;7.07;;
38499;SDS011;24269;51.894;4.622;2022-10-19T02:41:28;10.20;;;7.07;;
38499;SDS011;24269;51.894;4.622;2022-10-19T02:44:16;10.10;;;7.15;;
38499;SDS011;24269;51.894;4.622;2022-10-19T02:46:48;11.48;;;7.63;;
38499;SDS011;24269;51.894;4.622;2022-10-19T02:49:35;10.00;;;7.10;;
38499;SDS011;24269;51.894;4.622;2022-10-19T02:52:04;9.88;;;6.85;;
38499;SDS011;24269;51.894;4.622;2022-10-19T02:54:32;10.48;;;6.78;;
38499;SDS011;24269;51.894;4.622;2022-10-19T02:56:58;9.50;;;6.90;;
38499;SDS011;24269;51.894;4.622;2022-10-19T02:59:23;11.10;;;7.28;;
38499;SDS011;24269;51.894;4.622;2022-10-19T03:01:49;11.90;;;7.03;;
38499;SDS011;24269;51.894;4.622;2022-10-19T03:04:15;9.52;;;7.20;;
38499;SDS011;24269;51.894;4.622;2022-10-19T03:13:06;9.05;;;6.80;;
38499;SDS011;24269;51.894;4.622;2022-10-19T03:15:32;10.50;;;6.25;;
38499;SDS011;24269;51.894;4.622;2022-10-19T03:17:57;9.10;;;6.40;;
38499;SDS011;24269;51.894;4.622;2022-10-19T03:20:23;9.48;;;6.90;;
38499;SDS011;24269;51.894;4.622;2022-10-19T03:22:49;9.18;;;6.55;;
38499;SDS011;24269;51.894;4.622;2022-10-19T03:25:14;16.60;;;7.18;;
38499;SDS011;24269;51.894;4.622;2022-10-19T03:27:40;11.82;;;7.22;;
38499;SDS011;24269;51.894;4.622;2022-10-19T03:30:06;12.45;;;7.43;;
38499;SDS011;24269;51.894;4.622;2022-10-19T03:32:31;10.15;;;7.95;;
38499;SDS011;24269;51.894;4.622;2022-10-19T03:34:57;9.38;;;7.05;;
38499;SDS011;24269;51.894;4.622;2022-10-19T03:37:23;11.73;;;7.90;;
38499;SDS011;24269;51.894;4.622;2022-10-19T03:39:48;10.30;;;7.90;;
38499;SDS011;24269;51.894;4.622;2022-10-19T03:42:14;11.13;;;7.93;;
38499;SDS011;24269;51.894;4.622;2022-10-19T03:44:39;12.35;;;8.05;;
38499;SDS011;24269;51.894;4.622;2022-10-19T03:47:05;11.98;;;7.90;;
38499;SDS011;24269;51.894;4.622;2022-10-19T03:49:30;12.10;;;7.90;;
38499;SDS011;24269;51.894;4.622;2022-10-19T03:51:56;11.55;;;8.38;;
38499;SDS011;24269;51.894;4.622;2022-10-19T03:54:21;10.60;;;7.93;;
38499;SDS011;24269;51.894;4.622;2022-10-19T03:56:47;12.52;;;8.38;;
38499;SDS011;24269;51.894;4.622;2022-10-19T03:59:13;12.35;;;8.55;;
38499;SDS011;24269;51.894;4.622;2022-10-19T04:01:41;13.27;;;8.55;;
38499;SDS011;24269;51.894;4.622;2022-10-19T04:04:10;13.57;;;8.80;;
38499;SDS011;24269;51.894;4.622;2022-10-19T04:09:08;11.85;;;7.78;;
38499;SDS011;24269;51.894;4.622;2022-10-19T04:11:36;12.15;;;8.57;;
38499;SDS011;24269;51.894;4.622;2022-10-19T04:14:02;12.32;;;8.93;;
38499;SDS011;24269;51.894;4.622;2022-10-19T04:16:28;12.40;;;8.52;;
38499;SDS011;24269;51.894;4.622;2022-10-19T04:18:55;13.98;;;8.68;;
38499;SDS011;24269;51.894;4.622;2022-10-19T04:21:25;13.18;;;9.32;;
38499;SDS011;24269;51.894;4.622;2022-10-19T04:24:00;12.10;;;8.43;;
38499;SDS011;24269;51.894;4.622;2022-10-19T04:26:32;14.50;;;8.50;;
38499;SDS011;24269;51.894;4.622;2022-10-19T04:28:58;11.55;;;8.57;;
38499;SDS011;24269;51.894;4.622;2022-10-19T04:31:25;13.27;;;8.05;;
38499;SDS011;24269;51.894;4.622;2022-10-19T04:33:51;14.73;;;8.93;;
38499;SDS011;24269;51.894;4.622;2022-10-19T04:36:17;13.48;;;9.40;;
38499;SDS011;24269;51.894;4.622;2022-10-19T04:38:43;12.95;;;9.60;;
38499;SDS011;24269;51.894;4.622;2022-10-19T04:41:10;15.98;;;9.55;;
38499;SDS011;24269;51.894;4.622;2022-10-19T04:43:38;14.02;;;8.75;;
38499;SDS011;24269;51.894;4.622;2022-10-19T04:46:08;13.23;;;9.07;;
38499;SDS011;24269;51.894;4.622;2022-10-19T04:48:35;11.68;;;8.65;;
38499;SDS011;24269;51.894;4.622;2022-10-19T04:51:02;16.15;;;10.02;;
38499;SDS011;24269;51.894;4.622;2022-10-19T04:53:28;14.02;;;9.55;;
38499;SDS011;24269;51.894;4.622;2022-10-19T04:55:54;14.88;;;9.45;;
38499;SDS011;24269;51.894;4.622;2022-10-19T04:58:20;14.63;;;9.43;;
38499;SDS011;24269;51.894;4.622;2022-10-19T05:00:46;16.15;;;9.40;;
38499;SDS011;24269;51.894;4.622;2022-10-19T05:03:11;14.18;;;8.70;;
38499;SDS011;24269;51.894;4.622;2022-10-19T05:05:37;11.85;;;8.35;;
38499;SDS011;24269;51.894;4.622;2022-10-19T05:08:03;12.65;;;8.23;;
38499;SDS011;24269;51.894;4.622;2022-10-19T05:10:29;15.43;;;8.30;;
38499;SDS011;24269;51.894;4.622;2022-10-19T05:12:54;14.07;;;7.82;;
38499;SDS011;24269;51.894;4.622;2022-10-19T05:15:20;11.63;;;8.27;;
38499;SDS011;24269;51.894;4.622;2022-10-19T05:17:45;10.73;;;7.80;;
38499;SDS011;24269;51.894;4.622;2022-10-19T05:20:11;12.63;;;7.65;;
38499;SDS011;24269;51.894;4.622;2022-10-19T05:22:37;13.27;;;8.18;;
38499;SDS011;24269;51.894;4.622;2022-10-19T05:25:04;12.52;;;8.02;;
38499;SDS011;24269;51.894;4.622;2022-10-19T05:27:30;12.13;;;7.93;;
38499;SDS011;24269;51.894;4.622;2022-10-19T05:29:56;10.98;;;7.28;;
38499;SDS011;24269;51.894;4.622;2022-10-19T05:32:21;11.35;;;8.23;;
38499;SDS011;24269;51.894;4.622;2022-10-19T05:34:47;12.90;;;7.55;;
38499;SDS011;24269;51.894;4.622;2022-10-19T05:37:13;11.52;;;7.80;;
38499;SDS011;24269;51.894;4.622;2022-10-19T05:39:40;15.02;;;8.30;;
38499;SDS011;24269;51.894;4.622;2022-10-19T05:42:06;12.93;;;8.90;;
38499;SDS011;24269;51.894;4.622;2022-10-19T05:44:31;12.45;;;8.48;;
38499;SDS011;24269;51.894;4.622;2022-10-19T05:46:57;11.85;;;8.82;;
38499;SDS011;24269;51.894;4.622;2022-10-19T05:49:22;15.25;;;8.50;;
38499;SDS011;24269;51.894;4.622;2022-10-19T05:51:48;13.30;;;8.18;;
38499;SDS011;24269;51.894;4.622;2022-10-19T05:54:14;12.23;;;7.95;;
38499;SDS011;24269;51.894;4.622;2022-10-19T05:56:40;12.93;;;8.15;;
38499;SDS011;24269;51.894;4.622;2022-10-19T05:59:07;12.00;;;7.82;;
38499;SDS011;24269;51.894;4.622;2022-10-19T06:01:34;12.77;;;7.85;;
38499;SDS011;24269;51.894;4.622;2022-10-19T06:04:01;14.15;;;7.82;;
38499;SDS011;24269;51.894;4.622;2022-10-19T06:06:27;14.68;;;7.95;;
38499;SDS011;24269;51.894;4.622;2022-10-19T06:08:55;15.00;;;7.22;;
38499;SDS011;24269;51.894;4.622;2022-10-19T06:13:52;12.05;;;6.72;;
38499;SDS011;24269;51.894;4.622;2022-10-19T06:16:19;11.25;;;6.57;;
38499;SDS011;24269;51.894;4.622;2022-10-19T06:18:46;14.10;;;7.32;;
38499;SDS011;24269;51.894;4.622;2022-10-19T06:21:13;15.90;;;7.38;;
38499;SDS011;24269;51.894;4.622;2022-10-19T06:23:43;13.77;;;7.55;;
38499;SDS011;24269;51.894;4.622;2022-10-19T06:26:10;11.30;;;6.93;;
38499;SDS011;24269;51.894;4.622;2022-10-19T06:28:38;12.13;;;7.72;;
38499;SDS011;24269;51.894;4.622;2022-10-19T06:31:06;11.90;;;6.90;;
38499;SDS011;24269;51.894;4.622;2022-10-19T06:33:32;12.07;;;6.75;;
38499;SDS011;24269;51.894;4.622;2022-10-19T06:36:08;13.35;;;6.30;;
38499;SDS011;24269;51.894;4.622;2022-10-19T06:38:35;15.48;;;7.60;;
38499;SDS011;24269;51.894;4.622;2022-10-19T06:41:01;14.27;;;7.40;;
38499;SDS011;24269;51.894;4.622;2022-10-19T06:43:27;16.30;;;7.20;;
38499;SDS011;24269;51.894;4.622;2022-10-19T06:45:52;11.35;;;6.70;;
38499;SDS011;24269;51.894;4.622;2022-10-19T06:48:18;17.23;;;7.25;;
38499;SDS011;24269;51.894;4.622;2022-10-19T06:50:44;15.10;;;7.35;;
38499;SDS011;24269;51.894;4.622;2022-10-19T06:53:09;13.82;;;7.10;;
38499;SDS011;24269;51.894;4.622;2022-10-19T06:55:35;15.07;;;7.18;;
38499;SDS011;24269;51.894;4.622;2022-10-19T06:58:01;12.40;;;6.72;;
38499;SDS011;24269;51.894;4.622;2022-10-19T07:00:27;11.65;;;7.07;;
38499;SDS011;24269;51.894;4.622;2022-10-19T07:02:54;12.98;;;7.30;;
38499;SDS011;24269;51.894;4.622;2022-10-19T07:05:20;16.60;;;8.38;;
38499;SDS011;24269;51.894;4.622;2022-10-19T07:07:46;16.27;;;8.00;;
38499;SDS011;24269;51.894;4.622;2022-10-19T07:10:11;17.40;;;8.73;;
38499;SDS011;24269;51.894;4.622;2022-10-19T07:12:37;16.80;;;8.00;;
38499;SDS011;24269;51.894;4.622;2022-10-19T07:15:03;15.70;;;7.63;;
38499;SDS011;24269;51.894;4.622;2022-10-19T07:17:29;19.55;;;8.10;;
38499;SDS011;24269;51.894;4.622;2022-10-19T07:19:55;15.70;;;8.45;;
38499;SDS011;24269;51.894;4.622;2022-10-19T07:22:20;21.92;;;8.75;;
38499;SDS011;24269;51.894;4.622;2022-10-19T07:24:46;16.05;;;8.02;;
38499;SDS011;24269;51.894;4.622;2022-10-19T07:27:12;17.73;;;8.30;;
38499;SDS011;24269;51.894;4.622;2022-10-19T07:29:37;14.18;;;7.45;;
38499;SDS011;24269;51.894;4.622;2022-10-19T07:32:03;14.75;;;7.93;;
38499;SDS011;24269;51.894;4.622;2022-10-19T07:34:29;14.10;;;7.97;;
38499;SDS011;24269;51.894;4.622;2022-10-19T07:36:54;16.60;;;7.47;;
38499;SDS011;24269;51.894;4.622;2022-10-19T07:39:20;13.18;;;7.57;;
38499;SDS011;24269;51.894;4.622;2022-10-19T07:41:46;15.27;;;8.10;;
38499;SDS011;24269;51.894;4.622;2022-10-19T07:44:12;18.33;;;7.88;;
38499;SDS011;24269;51.894;4.622;2022-10-19T07:46:38;15.55;;;8.00;;
38499;SDS011;24269;51.894;4.622;2022-10-19T07:49:06;12.75;;;7.60;;
38499;SDS011;24269;51.894;4.622;2022-10-19T07:51:35;16.73;;;8.05;;
38499;SDS011;24269;51.894;4.622;2022-10-19T07:54:01;15.75;;;8.68;;
38499;SDS011;24269;51.894;4.622;2022-10-19T07:56:28;16.58;;;7.53;;
38499;SDS011;24269;51.894;4.622;2022-10-19T07:58:54;13.55;;;7.65;;
38499;SDS011;24269;51.894;4.622;2022-10-19T08:01:30;17.90;;;7.43;;
38499;SDS011;24269;51.894;4.622;2022-10-19T08:03:57;16.30;;;6.78;;
38499;SDS011;24269;51.894;4.622;2022-10-19T08:06:24;11.93;;;7.13;;
38499;SDS011;24269;51.894;4.622;2022-10-19T08:08:50;12.65;;;6.20;;
38499;SDS011;24269;51.894;4.622;2022-10-19T08:11:21;10.98;;;6.32;;
38499;SDS011;24269;51.894;4.622;2022-10-19T08:13:52;13.40;;;6.07;;
38499;SDS011;24269;51.894;4.622;2022-10-19T08:16:28;12.90;;;5.88;;
38499;SDS011;24269;51.894;4.622;2022-10-19T08:18:57;13.48;;;6.25;;
38499;SDS011;24269;51.894;4.622;2022-10-19T08:21:25;11.65;;;5.93;;
38499;SDS011;24269;51.894;4.622;2022-10-19T08:23:51;16.25;;;5.65;;
38499;SDS011;24269;51.894;4.622;2022-10-19T08:26:17;14.63;;;5.60;;
38499;SDS011;24269;51.894;4.622;2022-10-19T08:28:42;11.93;;;4.90;;
38499;SDS011;24269;51.894;4.622;2022-10-19T08:31:12;14.20;;;5.40;;
38499;SDS011;24269;51.894;4.622;2022-10-19T08:33:40;17.20;;;5.38;;
38499;SDS011;24269;51.894;4.622;2022-10-19T08:36:06;10.70;;;4.50;;
38499;SDS011;24269;51.894;4.622;2022-10-19T08:38:33;9.27;;;4.32;;
38499;SDS011;24269;51.894;4.622;2022-10-19T08:41:05;13.25;;;4.70;;
38499;SDS011;24269;51.894;4.622;2022-10-19T08:44:44;14.88;;;4.13;;
38499;SDS011;24269;51.894;4.622;2022-10-19T08:49:37;11.95;;;3.72;;
38499;SDS011;24269;51.894;4.622;2022-10-19T08:52:11;9.73;;;3.40;;
38499;SDS011;24269;51.894;4.622;2022-10-19T08:57:39;9.77;;;3.28;;
38499;SDS011;24269;51.894;4.622;2022-10-19T09:08:47;11.63;;;2.95;;
38499;SDS011;24269;51.894;4.622;2022-10-19T09:11:24;11.13;;;2.90;;
38499;SDS011;24269;51.894;4.622;2022-10-19T09:14:04;7.63;;;2.90;;
38499;SDS011;24269;51.894;4.622;2022-10-19T09:16:41;6.70;;;2.45;;
38499;SDS011;24269;51.894;4.622;2022-10-19T09:19:23;8.52;;;2.80;;
38499;SDS011;24269;51.894;4.622;2022-10-19T09:21:57;8.52;;;2.95;;
38499;SDS011;24269;51.894;4.622;2022-10-19T09:26:59;12.98;;;3.03;;
38499;SDS011;24269;51.894;4.622;2022-10-19T09:32:14;8.77;;;2.90;;
38499;SDS011;24269;51.894;4.622;2022-10-19T09:34:51;8.02;;;2.70;;
38499;SDS011;24269;51.894;4.622;2022-10-19T09:37:19;12.30;;;3.40;;
38499;SDS011;24269;51.894;4.622;2022-10-19T09:39:46;9.98;;;3.15;;
38499;SDS011;24269;51.894;4.622;2022-10-19T09:44:54;8.18;;;2.90;;
38499;SDS011;24269;51.894;4.622;2022-10-19T09:47:36;12.57;;;2.90;;
38499;SDS011;24269;51.894;4.622;2022-10-19T09:50:05;7.20;;;2.65;;
38499;SDS011;24269;51.894;4.622;2022-10-19T09:52:33;10.00;;;3.15;;
38499;SDS011;24269;51.894;4.622;2022-10-19T09:55:47;12.00;;;3.28;;
38499;SDS011;24269;51.894;4.622;2022-10-19T09:57:57;6.55;;;2.55;;
38499;SDS011;24269;51.894;4.622;2022-10-19T10:03:33;8.43;;;3.20;;
38499;SDS011;24269;51.894;4.622;2022-10-19T10:08:36;6.90;;;2.90;;
38499;SDS011;24269;51.894;4.622;2022-10-19T10:11:14;12.85;;;3.30;;
38499;SDS011;24269;51.894;4.622;2022-10-19T10:13:57;10.80;;;2.92;;
38499;SDS011;24269;51.894;4.622;2022-10-19T10:16:27;7.50;;;2.80;;
38499;SDS011;24269;51.894;4.622;2022-10-19T10:18:55;7.90;;;2.58;;
38499;SDS011;24269;51.894;4.622;2022-10-19T10:21:24;9.82;;;2.58;;
38499;SDS011;24269;51.894;4.622;2022-10-19T10:24:10;7.82;;;2.40;;
38499;SDS011;24269;51.894;4.622;2022-10-19T10:26:45;9.98;;;2.60;;
38499;SDS011;24269;51.894;4.622;2022-10-19T10:32:05;5.60;;;2.20;;
38499;SDS011;24269;51.894;4.622;2022-10-19T10:34:38;6.90;;;2.30;;
38499;SDS011;24269;51.894;4.622;2022-10-19T10:37:07;8.90;;;2.10;;
38499;SDS011;24269;51.894;4.622;2022-10-19T10:39:43;10.60;;;2.00;;
38499;SDS011;24269;51.894;4.622;2022-10-19T10:42:26;6.78;;;2.00;;
38499;SDS011;24269;51.894;4.622;2022-10-19T10:44:54;6.47;;;1.83;;
38499;SDS011;24269;51.894;4.622;2022-10-19T10:47:21;6.78;;;1.70;;
38499;SDS011;24269;51.894;4.622;2022-10-19T10:49:55;6.45;;;1.75;;
38499;SDS011;24269;51.894;4.622;2022-10-19T10:52:24;7.32;;;1.52;;
38499;SDS011;24269;51.894;4.622;2022-10-19T10:57:26;6.43;;;1.58;;
38499;SDS011;24269;51.894;4.622;2022-10-19T11:05:18;8.18;;;1.50;;
38499;SDS011;24269;51.894;4.622;2022-10-19T11:07:54;4.20;;;1.48;;
38499;SDS011;24269;51.894;4.622;2022-10-19T11:10:41;9.45;;;1.85;;
38499;SDS011;24269;51.894;4.622;2022-10-19T11:18:26;4.53;;;1.40;;
38499;SDS011;24269;51.894;4.622;2022-10-19T11:21:19;5.35;;;1.60;;
38499;SDS011;24269;51.894;4.622;2022-10-19T11:24:06;6.32;;;1.80;;
38499;SDS011;24269;51.894;4.622;2022-10-19T11:29:48;5.55;;;1.52;;
38499;SDS011;24269;51.894;4.622;2022-10-19T11:41:01;6.22;;;1.83;;
38499;SDS011;24269;51.894;4.622;2022-10-19T11:46:44;7.05;;;1.90;;
38499;SDS011;24269;51.894;4.622;2022-10-19T11:49:24;4.35;;;1.70;;
38499;SDS011;24269;51.894;4.622;2022-10-19T11:51:59;6.53;;;1.85;;
38499;SDS011;24269;51.894;4.622;2022-10-19T11:54:37;8.10;;;1.52;;
38499;SDS011;24269;51.894;4.622;2022-10-19T11:57:24;4.65;;;1.75;;
38499;SDS011;24269;51.894;4.622;2022-10-19T12:00:11;6.10;;;1.92;;
38499;SDS011;24269;51.894;4.622;2022-10-19T12:02:53;7.07;;;2.15;;
38499;SDS011;24269;51.894;4.622;2022-10-19T12:13:55;8.93;;;2.45;;
38499;SDS011;24269;51.894;4.622;2022-10-19T12:16:33;8.82;;;2.28;;
38499;SDS011;24269;51.894;4.622;2022-10-19T12:19:02;6.35;;;1.95;;
38499;SDS011;24269;51.894;4.622;2022-10-19T12:21:34;4.53;;;1.92;;
38499;SDS011;24269;51.894;4.622;2022-10-19T12:24:03;7.32;;;1.92;;
38499;SDS011;24269;51.894;4.622;2022-10-19T12:26:40;5.68;;;1.63;;
38499;SDS011;24269;51.894;4.622;2022-10-19T12:29:13;5.32;;;1.65;;
38499;SDS011;24269;51.894;4.622;2022-10-19T12:32:00;8.60;;;1.80;;
38499;SDS011;24269;51.894;4.622;2022-10-19T12:34:35;5.45;;;1.23;;
38499;SDS011;24269;51.894;4.622;2022-10-19T12:37:38;5.93;;;1.50;;
38499;SDS011;24269;51.894;4.622;2022-10-19T12:45:53;8.68;;;1.65;;
38499;SDS011;24269;51.894;4.622;2022-10-19T12:48:26;4.50;;;1.25;;
38499;SDS011;24269;51.894;4.622;2022-10-19T12:53:37;4.97;;;1.45;;
38499;SDS011;24269;51.894;4.622;2022-10-19T13:01:14;5.95;;;1.67;;
38499;SDS011;24269;51.894;4.622;2022-10-19T13:03:52;5.55;;;1.50;;
38499;SDS011;24269;51.894;4.622;2022-10-19T13:06:42;8.77;;;1.80;;
38499;SDS011;24269;51.894;4.622;2022-10-19T13:09:30;4.65;;;1.90;;
38499;SDS011;24269;51.894;4.622;2022-10-19T13:22:46;6.88;;;1.50;;
38499;SDS011;24269;51.894;4.622;2022-10-19T13:27:59;4.97;;;1.60;;
38499;SDS011;24269;51.894;4.622;2022-10-19T13:52:36;5.65;;;1.38;;
38499;SDS011;24269;51.894;4.622;2022-10-19T14:11:25;5.28;;;1.52;;
38499;SDS011;24269;51.894;4.622;2022-10-19T14:19:30;6.45;;;1.80;;
38499;SDS011;24269;51.894;4.622;2022-10-19T14:21:59;5.63;;;1.88;;
38499;SDS011;24269;51.894;4.622;2022-10-19T14:24:40;6.10;;;2.05;;
38499;SDS011;24269;51.894;4.622;2022-10-19T14:27:05;4.53;;;1.85;;
38499;SDS011;24269;51.894;4.622;2022-10-19T14:29:35;5.38;;;2.00;;
38499;SDS011;24269;51.894;4.622;2022-10-19T14:32:09;4.70;;;1.80;;
38499;SDS011;24269;51.894;4.622;2022-10-19T14:34:39;6.25;;;2.15;;
38499;SDS011;24269;51.894;4.622;2022-10-19T14:37:19;7.88;;;2.28;;
38499;SDS011;24269;51.894;4.622;2022-10-19T14:42:34;6.82;;;2.10;;
38499;SDS011;24269;51.894;4.622;2022-10-19T14:45:14;6.82;;;2.15;;
38499;SDS011;24269;51.894;4.622;2022-10-19T14:56:12;7.43;;;2.65;;
38499;SDS011;24269;51.894;4.622;2022-10-19T14:59:04;7.38;;;2.80;;
38499;SDS011;24269;51.894;4.622;2022-10-19T15:01:53;7.32;;;2.55;;
38499;SDS011;24269;51.894;4.622;2022-10-19T15:04:23;7.80;;;2.85;;
38499;SDS011;24269;51.894;4.622;2022-10-19T15:06:53;6.78;;;2.97;;
38499;SDS011;24269;51.894;4.622;2022-10-19T15:11:54;7.05;;;3.08;;
38499;SDS011;24269;51.894;4.622;2022-10-19T15:14:28;7.07;;;2.90;;
38499;SDS011;24269;51.894;4.622;2022-10-19T15:17:00;7.35;;;3.30;;
38499;SDS011;24269;51.894;4.622;2022-10-19T15:25:00;7.43;;;3.70;;
38499;SDS011;24269;51.894;4.622;2022-10-19T15:27:47;8.30;;;3.75;;
38499;SDS011;24269;51.894;4.622;2022-10-19T15:33:37;8.55;;;3.80;;
38499;SDS011;24269;51.894;4.622;2022-10-19T15:36:06;9.40;;;4.28;;
38499;SDS011;24269;51.894;4.622;2022-10-19T15:38:34;8.50;;;3.88;;
38499;SDS011;24269;51.894;4.622;2022-10-19T15:43:36;9.10;;;3.97;;
38499;SDS011;24269;51.894;4.622;2022-10-19T15:46:23;8.07;;;3.55;;
38499;SDS011;24269;51.894;4.622;2022-10-19T15:48:56;8.88;;;4.13;;
38499;SDS011;24269;51.894;4.622;2022-10-19T15:53:59;8.15;;;4.30;;
38499;SDS011;24269;51.894;4.622;2022-10-19T15:56:28;8.20;;;4.38;;
38499;SDS011;24269;51.894;4.622;2022-10-19T15:58:57;8.68;;;3.65;;
38499;SDS011;24269;51.894;4.622;2022-10-19T16:01:26;10.65;;;4.13;;
38499;SDS011;24269;51.894;4.622;2022-10-19T16:03:54;7.03;;;3.95;;
38499;SDS011;24269;51.894;4.622;2022-10-19T16:06:21;11.52;;;3.90;;
38499;SDS011;24269;51.894;4.622;2022-10-19T16:08:49;8.30;;;3.58;;
38499;SDS011;24269;51.894;4.622;2022-10-19T16:11:16;9.38;;;4.20;;
38499;SDS011;24269;51.894;4.622;2022-10-19T16:13:43;9.13;;;3.88;;
38499;SDS011;24269;51.894;4.622;2022-10-19T16:16:11;7.20;;;3.45;;
38499;SDS011;24269;51.894;4.622;2022-10-19T16:18:44;8.27;;;3.72;;
38499;SDS011;24269;51.894;4.622;2022-10-19T16:21:11;13.63;;;3.90;;
38499;SDS011;24269;51.894;4.622;2022-10-19T16:23:38;7.68;;;3.55;;
38499;SDS011;24269;51.894;4.622;2022-10-19T16:26:04;8.50;;;3.60;;
38499;SDS011;24269;51.894;4.622;2022-10-19T16:28:30;9.40;;;4.03;;
38499;SDS011;24269;51.894;4.622;2022-10-19T16:30:57;8.57;;;3.85;;
38499;SDS011;24269;51.894;4.622;2022-10-19T16:33:22;8.27;;;3.92;;
38499;SDS011;24269;51.894;4.622;2022-10-19T16:35:48;8.13;;;3.78;;
38499;SDS011;24269;51.894;4.622;2022-10-19T16:38:13;7.35;;;4.05;;
38499;SDS011;24269;51.894;4.622;2022-10-19T16:40:39;7.70;;;3.53;;
38499;SDS011;24269;51.894;4.622;2022-10-19T16:43:05;8.20;;;3.78;;
38499;SDS011;24269;51.894;4.622;2022-10-19T16:45:32;7.28;;;4.15;;
38499;SDS011;24269;51.894;4.622;2022-10-19T16:47:58;8.30;;;3.90;;
38499;SDS011;24269;51.894;4.622;2022-10-19T16:50:23;11.88;;;4.00;;
38499;SDS011;24269;51.894;4.622;2022-10-19T16:53:06;7.00;;;3.80;;
38499;SDS011;24269;51.894;4.622;2022-10-19T16:55:36;10.35;;;3.80;;
38499;SDS011;24269;51.894;4.622;2022-10-19T16:58:03;8.43;;;3.60;;
38499;SDS011;24269;51.894;4.622;2022-10-19T17:00:29;9.50;;;3.92;;
38499;SDS011;24269;51.894;4.622;2022-10-19T17:02:54;6.75;;;3.88;;
38499;SDS011;24269;51.894;4.622;2022-10-19T17:05:20;11.90;;;3.50;;
38499;SDS011;24269;51.894;4.622;2022-10-19T17:07:46;8.82;;;3.80;;
38499;SDS011;24269;51.894;4.622;2022-10-19T17:10:11;8.05;;;3.50;;
38499;SDS011;24269;51.894;4.622;2022-10-19T17:12:38;8.38;;;3.55;;
38499;SDS011;24269;51.894;4.622;2022-10-19T17:15:04;9.02;;;3.38;;
38499;SDS011;24269;51.894;4.622;2022-10-19T17:17:30;8.30;;;3.08;;
38499;SDS011;24269;51.894;4.622;2022-10-19T17:19:56;7.28;;;3.08;;
38499;SDS011;24269;51.894;4.622;2022-10-19T17:22:22;9.45;;;3.42;;
38499;SDS011;24269;51.894;4.622;2022-10-19T17:24:48;7.93;;;3.72;;
38499;SDS011;24269;51.894;4.622;2022-10-19T17:27:13;6.80;;;3.53;;
38499;SDS011;24269;51.894;4.622;2022-10-19T17:29:39;8.77;;;3.20;;
38499;SDS011;24269;51.894;4.622;2022-10-19T17:32:04;7.35;;;3.53;;
38499;SDS011;24269;51.894;4.622;2022-10-19T17:34:30;10.45;;;3.55;;
38499;SDS011;24269;51.894;4.622;2022-10-19T17:36:56;8.32;;;3.63;;
38499;SDS011;24269;51.894;4.622;2022-10-19T17:39:22;10.15;;;4.20;;
38499;SDS011;24269;51.894;4.622;2022-10-19T17:41:49;10.00;;;4.10;;
38499;SDS011;24269;51.894;4.622;2022-10-19T17:44:15;11.52;;;3.85;;
38499;SDS011;24269;51.894;4.622;2022-10-19T17:46:42;8.75;;;3.85;;
38499;SDS011;24269;51.894;4.622;2022-10-19T17:49:08;9.48;;;3.85;;
38499;SDS011;24269;51.894;4.622;2022-10-19T17:51:34;8.50;;;4.10;;
38499;SDS011;24269;51.894;4.622;2022-10-19T17:54:01;8.98;;;3.70;;
38499;SDS011;24269;51.894;4.622;2022-10-19T17:56:28;8.75;;;4.13;;
38499;SDS011;24269;51.894;4.622;2022-10-19T17:58:55;11.05;;;3.83;;
38499;SDS011;24269;51.894;4.622;2022-10-19T18:01:21;8.07;;;4.40;;
38499;SDS011;24269;51.894;4.622;2022-10-19T18:03:47;11.20;;;4.43;;
38499;SDS011;24269;51.894;4.622;2022-10-19T18:06:17;9.43;;;4.43;;
38499;SDS011;24269;51.894;4.622;2022-10-19T18:08:46;11.40;;;4.53;;
38499;SDS011;24269;51.894;4.622;2022-10-19T18:11:14;10.70;;;4.68;;